This is the latest recevied weather packets stored in our database for station/object CT1ETE-13. If no packets are shown the sender has not sent any weather packets the latest 10 day(s).
| Time | Temp. | Humidity | Pressure | Rain* | Wind** | Luminosity | Snow |
|---|---|---|---|---|---|---|---|
| 1787783820 | 16.11° C | 82% | 1010.7 hPa | 0.76 mm | - | 1475 W/m² | - |
| 1787782980 | 16.11° C | 84% | 1010.8 hPa | 0.25 mm | - | 1473 W/m² | - |
| 1787782020 | 16.11° C | 85% | 1010.9 hPa | 0 mm | - | 1471 W/m² | - |
| 1787781120 | 16.11° C | 85% | 1011 hPa | 0 mm | - | 1473 W/m² | - |
| 1787780220 | 16.11° C | 85% | 1011 hPa | 0 mm | - | 1475 W/m² | - |
| 1787779320 | 16.11° C | 85% | 1011 hPa | 0 mm | - | 1475 W/m² | - |
| 1787778420 | 16.11° C | 85% | 1011.1 hPa | 0 mm | - | 1475 W/m² | - |
| 1787777521 | 16.11° C | 85% | 1011 hPa | 0 mm | - | 1475 W/m² | - |
| 1787776681 | 16.11° C | 85% | 1011 hPa | 0 mm | - | 1473 W/m² | - |
| 1787775720 | 16.67° C | 85% | 1010.9 hPa | 0 mm | - | 1473 W/m² | - |
| 1787774878 | 16.67° C | 85% | 1011 hPa | 0 mm | - | 1470 W/m² | - |
| 1787773994 | 16.67° C | 85% | 1010.9 hPa | 0 mm | - | 1468 W/m² | - |
| 1787773020 | 16.67° C | 84% | 1010.7 hPa | 0 mm | - | 1466 W/m² | - |
| 1787772123 | 17.22° C | 84% | 1010.7 hPa | 0 mm | - | 1463 W/m² | - |
| 1787771219 | 17.78° C | 82% | 1010.6 hPa | 0 mm | - | 1459 W/m² | - |
| 1787770321 | 17.78° C | 80% | 1010.3 hPa | 0 mm | - | 1452 W/m² | - |
| 1787769415 | 18.33° C | 79% | 1010.4 hPa | 0 mm | - | 1443 W/m² | - |
| 1787768511 | 18.89° C | 79% | 1010.1 hPa | 0 mm | - | 1441 W/m² | - |
| 1787767668 | 18.89° C | 77% | 1010 hPa | 0 mm | - | 1438 W/m² | - |
| 1787766768 | 18.89° C | 78% | 1009.9 hPa | 0 mm | - | 1445 W/m² | - |
| 1787765808 | 18.33° C | 80% | 1010 hPa | 0 mm | - | 1447 W/m² | - |
| 1787764909 | 18.89° C | 77% | 1009.9 hPa | 0 mm | - | 1441 W/m² | - |
| 1787764009 | 19.44° C | 75% | 1009.7 hPa | 0 mm | - | 1434 W/m² | - |
| 1787763102 | 20° C | 71% | 1009.5 hPa | 0 mm | - | 1419 W/m² | - |
| 1787762202 | 20.56° C | 73% | 1009.2 hPa | 0 mm | - | 1420 W/m² | - |
* Rain latest hour (hover to see other rain measurements)
** Current wind speed in m/s (hover to see current wind gust speed)